createdAt,value
2022-11-15T00:00:32.977Z,72.30
2022-11-15T00:03:01.120Z,71.68
2022-11-15T00:05:28.750Z,72.50
2022-11-15T00:07:59.728Z,72.41
2022-11-15T00:10:27.549Z,71.98
2022-11-15T00:12:55.413Z,72.48
2022-11-15T00:15:23.273Z,72.87
2022-11-15T00:17:50.871Z,72.87
2022-11-15T00:20:20.597Z,72.93
2022-11-15T00:22:48.214Z,72.40
2022-11-15T00:25:16.263Z,73.09
2022-11-15T00:27:43.902Z,72.98
2022-11-15T00:30:11.498Z,72.79
2022-11-15T00:32:41.862Z,72.54
2022-11-15T00:35:09.499Z,73.06
2022-11-15T00:37:37.101Z,73.17
2022-11-15T00:40:04.686Z,73.38
2022-11-15T00:42:32.329Z,73.13
2022-11-15T00:45:00.346Z,73.68
2022-11-15T00:47:28.223Z,73.58
2022-11-15T00:49:55.815Z,73.00
2022-11-15T00:52:23.462Z,73.30
2022-11-15T00:54:51.069Z,73.52
2022-11-15T00:57:20.467Z,74.29
2022-11-15T00:59:48.083Z,73.94
2022-11-15T01:02:15.646Z,73.58
2022-11-15T01:04:43.275Z,73.76
2022-11-15T01:07:10.920Z,73.99
2022-11-15T01:09:38.963Z,74.05
2022-11-15T01:12:06.594Z,73.93
2022-11-15T01:14:34.185Z,73.43
2022-11-15T01:17:01.766Z,73.71
2022-11-15T01:19:29.394Z,73.40
2022-11-15T01:21:57.923Z,73.33
2022-11-15T01:24:25.511Z,73.43
2022-11-15T01:26:53.141Z,73.68
2022-11-15T01:29:21.192Z,73.93
2022-11-15T01:31:48.787Z,73.54
2022-11-15T01:34:19.471Z,73.30
2022-11-15T01:36:47.056Z,73.29
2022-11-15T01:39:14.601Z,73.83
2022-11-15T01:41:42.271Z,73.94
2022-11-15T01:44:09.813Z,73.64
2022-11-15T01:46:39.115Z,73.28
2022-11-15T01:49:06.745Z,73.44
2022-11-15T01:51:34.657Z,73.40
2022-11-15T01:54:02.263Z,73.72
2022-11-15T01:56:29.899Z,73.41
2022-11-15T01:58:57.523Z,73.47
2022-11-15T02:01:25.120Z,73.46
2022-11-15T02:03:52.722Z,73.86
2022-11-15T02:06:20.265Z,73.78
2022-11-15T02:08:47.807Z,74.04
2022-11-15T02:11:15.718Z,74.31
2022-11-15T02:13:43.688Z,74.00
2022-11-15T02:16:11.271Z,74.34
2022-11-15T02:18:38.870Z,74.47
2022-11-15T02:21:06.392Z,74.41
2022-11-15T02:23:34.570Z,75.12
2022-11-15T02:26:02.332Z,74.61
2022-11-15T02:28:29.878Z,74.52
2022-11-15T02:30:57.418Z,74.68
2022-11-15T02:33:25.058Z,74.37
2022-11-15T02:35:53.405Z,75.41
2022-11-15T02:38:20.926Z,75.07
2022-11-15T02:40:48.492Z,75.35
2022-11-15T02:43:33.747Z,74.79
2022-11-15T02:46:04.386Z,75.10
2022-11-15T02:48:31.920Z,74.63
2022-11-15T02:50:59.485Z,75.02
2022-11-15T02:53:27.326Z,74.60
2022-11-15T02:55:55.223Z,74.67
2022-11-15T02:58:25.098Z,74.40
2022-11-15T03:00:52.812Z,74.62
2022-11-15T03:03:20.433Z,75.01
2022-11-15T03:05:48.209Z,74.10
2022-11-15T03:08:15.846Z,74.59
2022-11-15T03:10:43.773Z,74.50
2022-11-15T03:13:11.329Z,74.14
2022-11-15T03:15:38.900Z,74.23
2022-11-15T03:18:06.876Z,74.09
2022-11-15T03:20:34.428Z,74.64
2022-11-15T03:23:04.764Z,74.27
2022-11-15T03:25:32.307Z,73.96
2022-11-15T03:27:59.846Z,74.12
2022-11-15T03:30:27.444Z,74.01
2022-11-15T03:32:55.016Z,74.10
2022-11-15T03:35:24.282Z,74.53
2022-11-15T03:37:51.882Z,74.50
2022-11-15T03:40:19.483Z,73.88
2022-11-15T03:42:47.080Z,74.36
2022-11-15T03:45:16.025Z,74.35
2022-11-15T03:47:44.628Z,73.92
2022-11-15T03:50:12.177Z,74.81
2022-11-15T03:52:39.748Z,74.50
2022-11-15T03:55:07.312Z,74.10
2022-11-15T03:57:34.899Z,74.36
2022-11-15T04:00:02.815Z,74.12
2022-11-15T04:02:30.766Z,74.66
2022-11-15T04:04:58.310Z,74.78
2022-11-15T04:07:25.991Z,74.42
2022-11-15T04:10:06.906Z,73.86
2022-11-15T04:12:34.560Z,74.08
2022-11-15T04:15:11.196Z,74.51
2022-11-15T04:17:38.791Z,75.10
2022-11-15T04:20:24.578Z,74.48
2022-11-15T04:23:09.754Z,74.34
2022-11-15T04:25:37.370Z,74.30
2022-11-15T04:28:04.914Z,74.81
2022-11-15T04:30:32.754Z,74.91
2022-11-15T04:33:00.301Z,74.35
2022-11-15T04:35:27.853Z,74.53
2022-11-15T04:37:55.475Z,74.88
2022-11-15T04:40:23.032Z,74.50
2022-11-15T04:42:50.955Z,74.83
2022-11-15T04:45:18.996Z,74.45
2022-11-15T04:47:47.065Z,74.26
2022-11-15T04:50:15.949Z,74.42
2022-11-15T04:52:43.548Z,74.70
2022-11-15T04:55:11.486Z,74.32
2022-11-15T04:57:39.064Z,74.30
2022-11-15T05:00:06.684Z,74.59
2022-11-15T05:02:48.016Z,74.90
2022-11-15T05:05:15.973Z,74.70
2022-11-15T05:07:43.553Z,74.79
2022-11-15T05:10:11.109Z,74.70
2022-11-15T05:12:38.697Z,74.88
2022-11-15T05:15:06.274Z,74.33
2022-11-15T05:17:34.250Z,74.95
2022-11-15T05:20:01.868Z,74.69
2022-11-15T05:22:29.527Z,75.08
2022-11-15T05:24:57.107Z,75.50
2022-11-15T05:27:27.897Z,74.92
2022-11-15T05:29:55.887Z,75.62
2022-11-15T05:32:23.440Z,75.24
2022-11-15T05:34:51.147Z,75.77
2022-11-15T05:37:18.943Z,75.58
2022-11-15T05:39:46.539Z,75.02
2022-11-15T05:42:14.538Z,75.67
2022-11-15T05:44:42.230Z,75.22
2022-11-15T05:47:09.839Z,75.87
2022-11-15T05:49:37.807Z,76.08
2022-11-15T05:52:05.422Z,75.84
2022-11-15T05:54:33.359Z,75.64
2022-11-15T05:57:01.084Z,76.40
2022-11-15T05:59:28.733Z,76.36
2022-11-15T06:01:56.416Z,76.37
2022-11-15T06:04:25.230Z,76.21
2022-11-15T06:06:53.219Z,76.34
2022-11-15T06:09:20.983Z,76.97
2022-11-15T06:11:49.177Z,76.61
2022-11-15T06:14:16.766Z,76.64
2022-11-15T06:16:45.124Z,76.70
2022-11-15T06:19:13.410Z,77.01
2022-11-15T06:21:41.048Z,76.94
2022-11-15T06:24:08.679Z,76.98
2022-11-15T06:26:36.995Z,77.21
2022-11-15T06:29:05.146Z,76.81
2022-11-15T06:31:33.120Z,76.54
2022-11-15T06:34:01.275Z,76.41
2022-11-15T06:36:28.889Z,76.63
2022-11-15T06:38:56.473Z,76.42
2022-11-15T06:41:26.058Z,76.22
2022-11-15T06:43:54.101Z,75.90
2022-11-15T06:46:21.743Z,76.53
2022-11-15T06:48:50.366Z,75.87
2022-11-15T06:51:17.926Z,75.35
2022-11-15T06:53:46.710Z,75.96
2022-11-15T06:56:15.072Z,75.56
2022-11-15T06:58:42.768Z,75.67
2022-11-15T07:01:10.618Z,75.35
2022-11-15T07:03:38.466Z,75.61
2022-11-15T07:06:07.652Z,75.32
2022-11-15T07:08:35.633Z,75.23
2022-11-15T07:11:03.423Z,75.25
2022-11-15T07:13:31.657Z,74.95
2022-11-15T07:15:59.391Z,75.40
2022-11-15T07:18:28.682Z,75.40
2022-11-15T07:20:56.349Z,74.96
2022-11-15T07:23:24.043Z,75.59
2022-11-15T07:25:52.024Z,75.65
2022-11-15T07:28:19.653Z,75.14
2022-11-15T07:30:47.537Z,75.47
2022-11-15T07:33:15.721Z,75.50
2022-11-15T07:35:43.786Z,75.96
2022-11-15T07:38:11.489Z,76.06
2022-11-15T07:40:39.249Z,75.86
2022-11-15T07:43:07.910Z,75.53
2022-11-15T07:45:36.164Z,75.29
2022-11-15T07:48:04.055Z,75.67
2022-11-15T07:50:32.313Z,74.91
2022-11-15T07:53:00.041Z,75.41
2022-11-15T07:55:28.538Z,75.38
2022-11-15T07:57:56.602Z,74.65
2022-11-15T08:00:24.690Z,75.43
2022-11-15T08:02:52.901Z,75.10
2022-11-15T08:05:20.940Z,74.76
2022-11-15T08:07:48.664Z,75.11
2022-11-15T08:10:17.954Z,74.55
2022-11-15T08:12:45.712Z,74.64
2022-11-15T08:15:13.532Z,74.27
2022-11-15T08:17:41.669Z,74.27
2022-11-15T08:20:09.480Z,73.97
2022-11-15T08:22:38.261Z,73.97
2022-11-15T08:25:06.568Z,73.79
2022-11-15T08:27:34.536Z,73.67
2022-11-15T08:30:03.128Z,73.86
2022-11-15T08:32:32.572Z,72.96
2022-11-15T08:35:00.634Z,73.32
2022-11-15T08:37:28.427Z,72.97
2022-11-15T08:39:56.383Z,72.11
2022-11-15T08:42:24.217Z,72.37
2022-11-15T08:44:52.964Z,72.45
2022-11-15T08:47:21.520Z,72.06
2022-11-15T08:49:49.336Z,71.99
2022-11-15T08:52:17.043Z,71.11
2022-11-15T08:54:44.980Z,71.42
2022-11-15T08:57:12.808Z,72.10
2022-11-15T08:59:41.074Z,71.04
2022-11-15T09:02:09.194Z,70.93
2022-11-15T09:04:36.967Z,71.07
2022-11-15T09:07:04.892Z,71.39
2022-11-15T09:09:34.083Z,70.34
2022-11-15T09:12:03.055Z,70.33
2022-11-15T09:14:31.047Z,70.44
2022-11-15T09:16:59.536Z,70.05
2022-11-15T09:19:27.416Z,70.17
2022-11-15T09:21:56.016Z,69.55
2022-11-15T09:24:24.490Z,69.83
2022-11-15T09:29:38.471Z,69.08
2022-11-15T09:32:06.318Z,69.30
2022-11-15T09:34:34.651Z,69.45
2022-11-15T09:37:02.531Z,69.59
2022-11-15T09:39:30.175Z,69.44
2022-11-15T09:41:58.123Z,69.26
2022-11-15T09:44:28.062Z,68.96
2022-11-15T09:46:56.866Z,68.24
2022-11-15T09:49:24.564Z,68.48
2022-11-15T09:51:53.178Z,67.91
2022-11-15T09:57:13.129Z,67.61
2022-11-15T09:59:43.548Z,67.21
2022-11-15T10:02:11.455Z,65.91
2022-11-15T10:04:39.178Z,65.49
2022-11-15T10:07:07.009Z,65.25
2022-11-15T10:09:37.489Z,65.41
2022-11-15T10:12:05.679Z,65.10
2022-11-15T10:14:33.396Z,64.38
2022-11-15T10:17:01.283Z,63.41
2022-11-15T10:19:29.144Z,63.34
2022-11-15T10:21:57.442Z,63.42
2022-11-15T10:24:25.424Z,63.57
2022-11-15T10:26:53.289Z,63.77
2022-11-15T10:29:26.484Z,63.89
2022-11-15T10:31:55.199Z,63.39
2022-11-15T10:34:23.544Z,63.25
2022-11-15T10:36:51.463Z,62.98
2022-11-15T10:42:10.176Z,61.91
2022-11-15T10:44:42.460Z,60.77
2022-11-15T10:47:10.299Z,60.54
2022-11-15T10:49:38.245Z,60.19
2022-11-15T10:52:06.310Z,59.95
2022-11-15T10:54:34.402Z,59.69
2022-11-15T10:57:02.627Z,59.46
2022-11-15T10:59:33.701Z,58.88
2022-11-15T11:02:05.614Z,59.23
2022-11-15T11:04:33.651Z,60.03
2022-11-15T11:07:01.551Z,59.70
2022-11-15T11:09:30.021Z,60.54
2022-11-15T11:11:58.043Z,60.86
2022-11-15T11:14:28.321Z,61.07
2022-11-15T11:16:56.161Z,60.29
2022-11-15T11:19:24.303Z,60.26
2022-11-15T11:21:52.538Z,60.51
2022-11-15T11:24:20.338Z,60.17
2022-11-15T11:26:51.668Z,60.71
2022-11-15T11:29:22.339Z,60.24
2022-11-15T11:31:50.314Z,60.65
2022-11-15T11:34:19.357Z,60.30
2022-11-15T11:36:47.676Z,60.63
2022-11-15T11:39:15.500Z,59.99
2022-11-15T11:41:43.387Z,59.38
2022-11-15T11:44:11.425Z,58.93
2022-11-15T11:46:39.794Z,58.60
2022-11-15T11:49:07.641Z,58.14
2022-11-15T11:51:35.371Z,58.02
2022-11-15T11:54:03.368Z,57.54
2022-11-15T11:56:31.186Z,56.75
2022-11-15T11:59:02.690Z,56.24
2022-11-15T12:01:30.988Z,56.45
2022-11-15T12:03:59.376Z,56.73
2022-11-15T12:06:27.247Z,56.45
2022-11-15T12:08:55.178Z,56.63
2022-11-15T12:11:24.997Z,56.10
2022-11-15T12:13:52.798Z,56.20
2022-11-15T12:16:20.821Z,55.78
2022-11-15T12:18:48.616Z,55.56
2022-11-15T12:21:17.230Z,55.05
2022-11-15T12:23:45.665Z,54.92
2022-11-15T12:26:13.960Z,55.09
2022-11-15T12:28:58.385Z,54.06
2022-11-15T12:31:29.791Z,54.61
2022-11-15T12:34:00.673Z,54.80
2022-11-15T12:36:32.290Z,54.64
2022-11-15T12:39:00.087Z,54.67
2022-11-15T12:41:27.990Z,54.85
2022-11-15T12:43:55.822Z,54.45
2022-11-15T12:46:24.333Z,54.55
2022-11-15T12:48:52.360Z,54.10
2022-11-15T12:51:20.329Z,54.24
2022-11-15T12:53:48.227Z,54.35
2022-11-15T12:56:16.273Z,54.20
2022-11-15T12:58:44.893Z,54.87
2022-11-15T13:01:12.623Z,54.83
2022-11-15T13:03:40.844Z,54.72
2022-11-15T13:06:08.981Z,54.51
2022-11-15T13:08:36.786Z,54.25
2022-11-15T13:11:04.992Z,54.23
2022-11-15T13:13:32.953Z,54.06
2022-11-15T13:16:00.829Z,54.05
2022-11-15T13:18:28.680Z,53.48
2022-11-15T13:21:01.967Z,54.28
2022-11-15T13:23:32.024Z,53.85
2022-11-15T13:26:00.633Z,53.56
2022-11-15T13:28:28.710Z,53.75
2022-11-15T13:30:56.700Z,54.04
2022-11-15T13:33:24.586Z,54.38
2022-11-15T13:35:54.926Z,53.78
2022-11-15T13:38:22.964Z,54.02
2022-11-15T13:40:51.092Z,54.30
2022-11-15T13:43:18.932Z,54.10
2022-11-15T13:45:46.915Z,54.05
2022-11-15T13:48:19.965Z,53.21
2022-11-15T13:50:47.796Z,53.43
2022-11-15T13:53:15.623Z,53.66
2022-11-15T13:55:43.577Z,53.56
2022-11-15T13:58:14.177Z,53.27
2022-11-15T14:00:45.206Z,53.15
2022-11-15T14:03:15.510Z,52.96
2022-11-15T14:05:43.390Z,52.89
2022-11-15T14:08:11.429Z,53.63
2022-11-15T14:10:39.379Z,54.01
2022-11-15T14:13:07.704Z,54.60
2022-11-15T14:15:35.854Z,54.87
2022-11-15T14:18:03.656Z,55.66
2022-11-15T14:20:32.049Z,55.46
2022-11-15T14:23:00.098Z,55.90
2022-11-15T14:25:29.264Z,55.79
2022-11-15T14:27:57.248Z,55.94
2022-11-15T14:30:25.557Z,56.01
2022-11-15T14:32:53.469Z,56.71
2022-11-15T14:35:21.321Z,56.47
2022-11-15T14:37:52.235Z,56.79
2022-11-15T14:40:20.142Z,57.11
2022-11-15T14:42:47.905Z,56.09
2022-11-15T14:45:16.391Z,57.20
2022-11-15T14:47:44.243Z,56.76
2022-11-15T14:50:14.551Z,56.97
2022-11-15T14:52:43.548Z,57.46
2022-11-15T14:55:11.412Z,57.55
2022-11-15T14:57:39.234Z,57.58
2022-11-15T15:00:07.152Z,58.14
2022-11-15T15:02:37.970Z,58.42
2022-11-15T15:05:05.854Z,57.89
2022-11-15T15:07:33.871Z,58.77
2022-11-15T15:10:37.841Z,58.62
2022-11-15T15:12:53.792Z,59.05
2022-11-15T15:15:21.651Z,58.97
2022-11-15T15:17:49.750Z,59.07
2022-11-15T15:20:17.684Z,58.86
2022-11-15T15:22:45.659Z,58.92
2022-11-15T15:25:14.185Z,59.68
2022-11-15T15:27:42.444Z,59.70
2022-11-15T15:30:10.301Z,59.84
2022-11-15T15:32:38.048Z,59.67
2022-11-15T15:35:06.564Z,59.99
2022-11-15T15:37:35.479Z,59.86
2022-11-15T15:40:03.490Z,60.01
2022-11-15T15:42:31.555Z,60.30
2022-11-15T15:44:59.336Z,60.26
2022-11-15T15:47:27.161Z,60.59
2022-11-15T15:49:57.241Z,61.04
2022-11-15T15:52:26.287Z,60.32
2022-11-15T15:54:54.096Z,60.94
2022-11-15T15:57:22.675Z,60.67
2022-11-15T15:59:50.529Z,61.26
2022-11-15T16:02:21.931Z,60.85
2022-11-15T16:04:49.891Z,61.25
2022-11-15T16:07:17.833Z,60.92
2022-11-15T16:10:04.381Z,61.49
2022-11-15T16:12:34.328Z,60.87
2022-11-15T16:15:02.318Z,60.86
2022-11-15T16:17:34.174Z,61.23
2022-11-15T16:20:02.442Z,61.25
2022-11-15T16:22:30.566Z,61.58
2022-11-15T16:25:01.401Z,61.58
2022-11-15T16:27:29.176Z,61.27
2022-11-15T16:29:57.120Z,61.47
2022-11-15T16:32:25.373Z,61.75
2022-11-15T16:34:53.280Z,61.42
2022-11-15T16:37:22.937Z,61.70
2022-11-15T16:39:50.717Z,61.86
2022-11-15T16:42:18.517Z,61.25
2022-11-15T16:44:46.684Z,61.56
2022-11-15T16:47:14.701Z,62.13
2022-11-15T16:49:42.499Z,61.79
2022-11-15T16:52:10.537Z,61.11
2022-11-15T16:54:38.290Z,61.82
2022-11-15T16:57:06.195Z,61.96
2022-11-15T16:59:38.132Z,61.68
2022-11-15T17:02:06.587Z,61.82
2022-11-15T17:04:34.841Z,61.99
2022-11-15T17:07:02.721Z,62.21
2022-11-15T17:09:30.696Z,61.85
2022-11-15T17:15:14.390Z,62.25
2022-11-15T17:17:42.253Z,61.92
2022-11-15T17:20:11.238Z,62.45
2022-11-15T17:22:42.068Z,62.26
2022-11-15T17:25:09.840Z,62.03
2022-11-15T17:27:38.517Z,61.42
2022-11-15T17:30:06.582Z,61.94
2022-11-15T17:32:34.483Z,62.15
2022-11-15T17:35:03.813Z,62.23
2022-11-15T17:37:31.711Z,62.26
2022-11-15T17:39:59.919Z,61.87
2022-11-15T17:42:27.744Z,62.18
2022-11-15T17:44:55.850Z,62.36
2022-11-15T17:47:24.252Z,62.59
2022-11-15T17:49:52.279Z,62.62
2022-11-15T17:52:20.582Z,62.50
2022-11-15T17:54:48.422Z,62.67
2022-11-15T17:57:16.369Z,62.51
2022-11-15T17:59:45.142Z,62.82
2022-11-15T18:02:13.309Z,62.22
2022-11-15T18:04:41.731Z,62.37
2022-11-15T18:07:12.075Z,62.80
2022-11-15T18:09:42.540Z,62.53
2022-11-15T18:12:12.486Z,62.91
2022-11-15T18:14:40.469Z,62.86
2022-11-15T18:17:08.794Z,62.62
2022-11-15T18:19:36.793Z,63.13
2022-11-15T18:22:05.794Z,62.76
2022-11-15T18:24:33.709Z,62.91
2022-11-15T18:27:01.779Z,63.36
2022-11-15T18:29:29.979Z,62.78
2022-11-15T18:31:59.118Z,63.08
2022-11-15T18:34:29.117Z,62.88
2022-11-15T18:36:56.942Z,63.33
2022-11-15T18:39:24.833Z,63.08
2022-11-15T18:41:53.311Z,63.45
2022-11-15T18:44:21.543Z,63.70
2022-11-15T18:46:49.403Z,63.19
2022-11-15T18:49:20.869Z,63.97
2022-11-15T18:51:48.744Z,64.20
2022-11-15T18:54:16.988Z,64.07
2022-11-15T18:56:46.232Z,64.20
2022-11-15T18:59:14.036Z,64.34
2022-11-15T19:01:43.544Z,64.04
2022-11-15T19:04:11.557Z,63.93
2022-11-15T19:06:40.250Z,64.23
2022-11-15T19:09:08.082Z,64.34
2022-11-15T19:11:36.133Z,64.08
2022-11-15T19:14:04.290Z,64.66
2022-11-15T19:16:33.368Z,64.43
2022-11-15T19:19:01.708Z,64.52
2022-11-15T19:21:29.588Z,64.91
2022-11-15T19:23:57.455Z,65.11
2022-11-15T19:26:26.531Z,64.98
2022-11-15T19:28:54.804Z,64.60
2022-11-15T19:31:24.041Z,64.70
2022-11-15T19:33:52.056Z,65.13
2022-11-15T19:36:19.937Z,64.98
2022-11-15T19:38:48.550Z,64.79
2022-11-15T19:41:16.506Z,65.20
2022-11-15T19:43:44.909Z,65.17
2022-11-15T19:46:12.767Z,65.08
2022-11-15T19:48:40.751Z,65.36
2022-11-15T19:51:08.988Z,65.40
2022-11-15T19:53:37.221Z,65.78
2022-11-15T19:56:06.043Z,65.44
2022-11-15T19:58:34.227Z,65.76
2022-11-15T20:01:02.511Z,65.90
2022-11-15T20:03:31.844Z,65.95
2022-11-15T20:05:59.996Z,65.71
2022-11-15T20:08:28.176Z,66.10
2022-11-15T20:10:56.666Z,66.01
2022-11-15T20:13:25.019Z,65.98
2022-11-15T20:15:54.741Z,65.92
2022-11-15T20:18:22.842Z,66.01
2022-11-15T20:20:51.167Z,65.49
2022-11-15T20:23:19.102Z,66.17
2022-11-15T20:25:47.101Z,65.80
2022-11-15T20:28:15.143Z,65.80
2022-11-15T20:30:43.068Z,66.40
2022-11-15T20:33:11.050Z,65.99
2022-11-15T20:35:39.311Z,66.39
2022-11-15T20:38:07.221Z,65.74
2022-11-15T20:40:37.907Z,65.79
2022-11-15T20:43:05.767Z,66.09
2022-11-15T20:45:33.935Z,66.23
2022-11-15T20:48:01.931Z,65.73
2022-11-15T20:50:42.591Z,66.31
2022-11-15T20:53:12.743Z,66.02
2022-11-15T20:55:41.946Z,66.44
2022-11-15T20:58:09.786Z,66.32
2022-11-15T21:00:38.374Z,65.96
2022-11-15T21:03:07.472Z,66.90
2022-11-15T21:05:35.752Z,65.86
2022-11-15T21:08:04.289Z,66.58
2022-11-15T21:10:49.333Z,66.57
2022-11-15T21:13:17.339Z,66.57
2022-11-15T21:15:50.033Z,66.61
2022-11-15T21:18:18.669Z,66.11
2022-11-15T21:20:46.605Z,66.79
2022-11-15T21:23:14.567Z,66.78
2022-11-15T21:25:42.769Z,66.88
2022-11-15T21:28:12.860Z,66.80
2022-11-15T21:30:41.130Z,66.67
2022-11-15T21:33:09.051Z,66.48
2022-11-15T21:35:36.947Z,67.09
2022-11-15T21:38:04.934Z,66.92
2022-11-15T21:40:34.238Z,66.37
2022-11-15T21:43:02.714Z,67.09
2022-11-15T21:45:30.679Z,67.18
2022-11-15T21:47:58.756Z,67.12
2022-11-15T21:50:26.728Z,66.50
2022-11-15T21:52:55.498Z,67.27
2022-11-15T21:55:23.931Z,67.57
2022-11-15T21:57:52.289Z,67.07
2022-11-15T22:00:37.435Z,66.83
2022-11-15T22:03:08.256Z,66.85
2022-11-15T22:05:36.628Z,66.86
2022-11-15T22:08:04.493Z,67.50
2022-11-15T22:10:32.414Z,66.90
2022-11-15T22:13:00.204Z,67.57
2022-11-15T22:15:29.874Z,67.37
2022-11-15T22:18:01.405Z,67.31
2022-11-15T22:20:44.433Z,67.16
2022-11-15T22:23:13.028Z,67.71
2022-11-15T22:25:43.281Z,67.21
2022-11-15T22:28:11.954Z,67.44
2022-11-15T22:30:41.270Z,67.65
2022-11-15T22:33:09.223Z,67.79
2022-11-15T22:35:37.136Z,67.20
2022-11-15T22:38:06.493Z,67.45
2022-11-15T22:40:34.550Z,67.82
2022-11-15T22:43:02.494Z,67.49
2022-11-15T22:45:30.400Z,67.61
2022-11-15T22:47:58.239Z,67.70
2022-11-15T22:50:26.081Z,67.94
2022-11-15T22:52:54.196Z,67.87
2022-11-15T22:55:22.171Z,68.05
2022-11-15T22:57:50.068Z,67.61
2022-11-15T23:00:18.803Z,68.24
2022-11-15T23:02:49.589Z,67.81
2022-11-15T23:05:21.346Z,67.87
2022-11-15T23:07:49.212Z,68.15
2022-11-15T23:10:34.454Z,68.78
2022-11-15T23:13:17.695Z,68.12
2022-11-15T23:16:03.206Z,68.09
2022-11-15T23:18:31.045Z,68.24
2022-11-15T23:20:59.557Z,68.44
2022-11-15T23:23:26.295Z,68.32
2022-11-15T23:25:56.421Z,68.57
2022-11-15T23:28:24.598Z,68.48
2022-11-15T23:31:09.604Z,68.62
2022-11-15T23:33:54.525Z,68.64
2022-11-15T23:36:24.296Z,68.52
2022-11-15T23:38:52.960Z,68.73
2022-11-15T23:41:20.682Z,69.11
2022-11-15T23:43:48.494Z,69.58
2022-11-15T23:46:16.330Z,68.70
2022-11-15T23:48:44.119Z,68.86
2022-11-15T23:51:12.236Z,69.35
2022-11-15T23:53:40.128Z,69.03
2022-11-15T23:56:07.883Z,69.08
2022-11-15T23:58:35.870Z,69.17
